Irma, Canada
Current Conditions -  °F | °C
As of 7:00 PM on Monday 24 Nov 2014 (Local Time) from CYLL Reporting Station
Overcast Overcast  
Wind Chill: 15°   Ceiling: 400
Heat Index: 21°   Visibility: 15mi
Dew Point: 19°   Wind: 5mph
Humidity: 93%   Direction: 80°E
Pressure: 29.84"   Gusts: NA
Location:  52.92°N, 111.23°W
Report Text: CYLL 250200Z 08004KT 15SM OVC004 M06/M07 A2984 RMK ST8 SLP145
Loading
Personal Weather Stations






























Interactive Weather Map New forecast layout! Learn more

10-Day Weather Forecast

Advertisements
Track Severe Weather on mobile